createdAt,value
2018-05-16T00:02:16.691Z,100398.46
2018-05-16T00:04:44.232Z,100397.45
2018-05-16T00:07:11.799Z,100398.28
2018-05-16T00:09:39.357Z,100395.74
2018-05-16T00:12:06.872Z,100396.99
2018-05-16T00:14:34.486Z,100404.09
2018-05-16T00:17:02.050Z,100399.71
2018-05-16T00:19:29.596Z,100402.81
2018-05-16T00:21:57.107Z,100404.09
2018-05-16T00:24:24.624Z,100404.13
2018-05-16T00:26:52.178Z,100403.37
2018-05-16T00:29:19.679Z,100407.72
2018-05-16T00:31:47.188Z,100412.23
2018-05-16T00:34:14.755Z,100415.56
2018-05-16T00:36:42.264Z,100413.37
2018-05-16T00:39:09.795Z,100412.20
2018-05-16T00:41:37.331Z,100411.89
2018-05-16T00:44:04.895Z,100411.92
2018-05-16T00:46:32.450Z,100413.52
2018-05-16T00:49:00.019Z,100408.14
2018-05-16T00:51:32.416Z,100398.80
2018-05-16T00:53:59.937Z,100398.91
2018-05-16T00:56:27.532Z,100399.31
2018-05-16T00:58:55.036Z,100395.12
2018-05-16T01:01:22.528Z,100382.33
2018-05-16T01:03:50.080Z,100395.09
2018-05-16T01:06:17.619Z,100394.50
2018-05-16T01:08:45.131Z,100396.06
2018-05-16T01:11:12.687Z,100391.83
2018-05-16T01:13:40.201Z,100394.47
2018-05-16T01:16:07.739Z,100403.16
2018-05-16T01:18:35.251Z,100406.55
2018-05-16T01:21:02.814Z,100401.45
2018-05-16T01:23:30.337Z,100404.58
2018-05-16T01:25:57.834Z,100403.33
2018-05-16T01:28:25.414Z,100401.62
2018-05-16T01:30:52.951Z,100386.23
2018-05-16T01:33:20.440Z,100382.00
2018-05-16T01:35:48.021Z,100375.44
2018-05-16T01:38:15.557Z,100379.33
2018-05-16T01:40:43.063Z,100375.98
2018-05-16T01:43:10.589Z,100379.39
2018-05-16T01:45:38.184Z,100379.29
2018-05-16T01:48:05.749Z,100380.36
2018-05-16T01:50:33.339Z,100377.44
2018-05-16T01:53:00.915Z,100367.89
2018-05-16T01:55:28.464Z,100363.31
2018-05-16T01:57:56.028Z,100370.91
2018-05-16T02:00:23.639Z,100368.20
2018-05-16T02:02:51.231Z,100365.34
2018-05-16T02:05:18.755Z,100372.53
2018-05-16T02:07:46.268Z,100374.69
2018-05-16T02:10:13.836Z,100364.20
2018-05-16T02:12:41.438Z,100367.40
2018-05-16T02:15:08.991Z,100369.16
2018-05-16T02:17:36.492Z,100371.55
2018-05-16T02:20:04.042Z,100374.28
2018-05-16T02:22:31.566Z,100373.09
2018-05-16T02:24:59.083Z,100365.77
2018-05-16T02:27:26.639Z,100357.66
2018-05-16T02:29:54.173Z,100351.68
2018-05-16T02:32:21.693Z,100347.73
2018-05-16T02:34:49.220Z,100353.55
2018-05-16T02:37:16.832Z,100355.31
2018-05-16T02:39:44.323Z,100351.27
2018-05-16T02:42:11.873Z,100363.11
2018-05-16T02:44:39.410Z,100362.18
2018-05-16T02:47:06.912Z,100357.11
2018-05-16T02:49:34.428Z,100357.56
2018-05-16T02:52:01.996Z,100358.48
2018-05-16T02:54:29.544Z,100355.47
2018-05-16T02:56:57.081Z,100352.55
2018-05-16T02:59:24.594Z,100354.05
2018-05-16T03:01:52.149Z,100356.27
2018-05-16T03:04:19.638Z,100358.84
2018-05-16T03:06:47.171Z,100353.78
2018-05-16T03:09:14.701Z,100359.27
2018-05-16T03:11:42.211Z,100365.20
2018-05-16T03:14:09.735Z,100362.99
2018-05-16T03:16:37.310Z,100361.03
2018-05-16T03:19:04.910Z,100362.73
2018-05-16T03:21:32.439Z,100348.94
2018-05-16T03:23:59.996Z,100355.48
2018-05-16T03:26:27.545Z,100357.80
2018-05-16T03:28:55.124Z,100357.35
2018-05-16T03:31:22.718Z,100352.37
2018-05-16T03:33:50.227Z,100347.99
2018-05-16T03:36:17.871Z,100349.63
2018-05-16T03:38:45.415Z,100351.88
2018-05-16T03:41:12.957Z,100367.29
2018-05-16T03:43:40.517Z,100363.86
2018-05-16T03:46:08.040Z,100369.74
2018-05-16T03:48:35.544Z,100372.16
2018-05-16T03:51:03.116Z,100370.37
2018-05-16T03:53:30.674Z,100369.02
2018-05-16T03:55:58.237Z,100363.38
2018-05-16T03:58:37.464Z,100355.83
2018-05-16T04:01:16.799Z,100357.47
2018-05-16T04:03:56.019Z,100354.49
2018-05-16T04:06:23.508Z,100354.64
2018-05-16T04:08:51.160Z,100350.05
2018-05-16T04:11:18.788Z,100350.50
2018-05-16T04:13:46.365Z,100359.36
2018-05-16T04:16:13.900Z,100366.48
2018-05-16T04:18:41.471Z,100368.55
2018-05-16T04:21:08.964Z,100370.09
2018-05-16T04:23:36.583Z,100374.33
2018-05-16T04:26:04.155Z,100370.33
2018-05-16T04:28:32.828Z,100357.78
2018-05-16T04:31:00.403Z,100366.45
2018-05-16T04:33:27.951Z,100369.63
2018-05-16T04:35:55.446Z,100365.33
2018-05-16T04:38:22.959Z,100360.70
2018-05-16T04:40:50.514Z,100367.38
2018-05-16T04:43:18.014Z,100363.98
2018-05-16T04:45:45.545Z,100363.30
2018-05-16T04:48:13.111Z,100364.36
2018-05-16T04:50:40.656Z,100369.21
2018-05-16T04:53:08.248Z,100365.94
2018-05-16T04:55:35.754Z,100375.59
2018-05-16T04:58:03.315Z,100372.38
2018-05-16T05:00:30.816Z,100380.31
2018-05-16T05:02:58.340Z,100376.16
2018-05-16T05:05:25.902Z,100374.30
2018-05-16T05:07:53.410Z,100380.28
2018-05-16T05:10:20.919Z,100377.30
2018-05-16T05:12:48.451Z,100378.83
2018-05-16T05:15:15.961Z,100376.69
2018-05-16T05:17:43.538Z,100378.67
2018-05-16T05:20:11.055Z,100373.52
2018-05-16T05:22:38.614Z,100373.66
2018-05-16T05:25:06.107Z,100373.44
2018-05-16T05:27:33.630Z,100374.36
2018-05-16T05:30:01.168Z,100375.39
2018-05-16T05:32:28.667Z,100380.49
2018-05-16T05:34:56.303Z,100378.69
2018-05-16T05:37:23.845Z,100369.11
2018-05-16T05:39:51.377Z,100374.21
2018-05-16T05:42:18.917Z,100373.83
2018-05-16T05:44:46.433Z,100371.95
2018-05-16T05:47:13.935Z,100370.17
2018-05-16T05:49:41.448Z,100376.56
2018-05-16T05:52:08.980Z,100381.78
2018-05-16T05:54:36.529Z,100373.16
2018-05-16T05:57:04.047Z,100386.66
2018-05-16T05:59:31.620Z,100389.89
2018-05-16T06:01:59.164Z,100380.11
2018-05-16T06:04:26.744Z,100382.05
2018-05-16T06:06:55.213Z,100377.30
2018-05-16T06:09:22.873Z,100383.72
2018-05-16T06:11:50.397Z,100397.46
2018-05-16T06:14:17.944Z,100397.40
2018-05-16T06:16:45.466Z,100391.25
2018-05-16T06:19:13.036Z,100389.66
2018-05-16T06:21:40.564Z,100397.43
2018-05-16T06:24:08.090Z,100403.87
2018-05-16T06:26:35.809Z,100403.67
2018-05-16T06:29:03.327Z,100405.37
2018-05-16T06:31:30.833Z,100407.27
2018-05-16T06:33:58.859Z,100405.55
2018-05-16T06:36:26.613Z,100408.28
2018-05-16T06:38:54.157Z,100402.87
2018-05-16T06:41:21.729Z,100402.25
2018-05-16T06:43:49.287Z,100406.00
2018-05-16T06:46:16.892Z,100404.64
2018-05-16T06:48:44.468Z,100407.86
2018-05-16T06:51:12.040Z,100402.94
2018-05-16T06:53:39.614Z,100401.42
2018-05-16T06:56:07.237Z,100405.63
2018-05-16T06:58:34.794Z,100408.90
2018-05-16T07:01:02.371Z,100401.01
2018-05-16T07:03:29.963Z,100393.92
2018-05-16T07:05:57.497Z,100382.97
2018-05-16T07:08:25.011Z,100395.03
2018-05-16T07:10:52.600Z,100397.34
2018-05-16T07:13:20.240Z,100386.59
2018-05-16T07:15:47.801Z,100389.29
2018-05-16T07:18:15.314Z,100387.01
2018-05-16T07:20:42.947Z,100380.81
2018-05-16T07:23:10.494Z,100388.63
2018-05-16T07:25:38.037Z,100386.91
2018-05-16T07:28:05.609Z,100390.41
2018-05-16T07:30:33.141Z,100396.31
2018-05-16T07:33:01.329Z,100395.86
2018-05-16T07:35:28.902Z,100393.66
2018-05-16T07:37:56.502Z,100402.09
2018-05-16T07:40:24.176Z,100405.00
2018-05-16T07:42:51.685Z,100400.09
2018-05-16T07:45:19.283Z,100395.48
2018-05-16T07:47:46.836Z,100405.86
2018-05-16T07:50:14.426Z,100406.91
2018-05-16T07:52:42.002Z,100416.09
2018-05-16T07:55:09.660Z,100420.36
2018-05-16T07:57:37.253Z,100428.50
2018-05-16T08:00:05.697Z,100427.80
2018-05-16T08:02:33.353Z,100433.85
2018-05-16T08:05:01.472Z,100436.87
2018-05-16T08:07:29.021Z,100436.53
2018-05-16T08:09:56.909Z,100442.50
2018-05-16T08:12:24.518Z,100440.59
2018-05-16T08:14:55.647Z,100438.73
2018-05-16T08:17:25.506Z,100429.78
2018-05-16T08:19:54.455Z,100431.61
2018-05-16T08:22:23.285Z,100430.92
2018-05-16T08:24:51.415Z,100434.03
2018-05-16T08:27:21.043Z,100438.19
2018-05-16T08:29:49.119Z,100446.94
2018-05-16T08:32:17.707Z,100453.97
2018-05-16T08:34:46.693Z,100454.96
2018-05-16T08:37:14.492Z,100457.95
2018-05-16T08:39:43.437Z,100455.26
2018-05-16T08:42:11.823Z,100456.88
2018-05-16T08:44:39.388Z,100453.70
2018-05-16T08:47:06.998Z,100457.70
2018-05-16T08:49:34.595Z,100463.22
2018-05-16T08:52:02.091Z,100472.08
2018-05-16T08:54:29.691Z,100473.66
2018-05-16T08:56:57.289Z,100474.05
2018-05-16T08:59:24.817Z,100475.60
2018-05-16T09:01:52.366Z,100465.94
2018-05-16T09:04:19.880Z,100462.35
2018-05-16T09:06:47.536Z,100464.48
2018-05-16T09:09:15.079Z,100468.03
2018-05-16T09:11:42.626Z,100469.48
2018-05-16T09:14:10.988Z,100471.91
2018-05-16T09:16:38.545Z,100465.25
2018-05-16T09:19:06.091Z,100467.34
2018-05-16T09:21:33.620Z,100468.55
2018-05-16T09:24:01.136Z,100465.27
2018-05-16T09:26:28.680Z,100462.81
2018-05-16T09:28:56.253Z,100462.30
2018-05-16T09:31:23.899Z,100462.46
2018-05-16T09:33:51.816Z,100466.12
2018-05-16T09:36:19.372Z,100475.02
2018-05-16T09:38:47.856Z,100475.02
2018-05-16T09:41:15.973Z,100468.78
2018-05-16T09:43:43.513Z,100471.26
2018-05-16T09:46:11.089Z,100464.05
2018-05-16T09:48:38.646Z,100469.54
2018-05-16T09:51:06.218Z,100475.27
2018-05-16T09:53:33.775Z,100482.67
2018-05-16T09:56:01.285Z,100481.55
2018-05-16T09:58:28.876Z,100483.98
2018-05-16T10:00:56.437Z,100483.52
2018-05-16T10:03:24.626Z,100485.15
2018-05-16T10:05:52.908Z,100485.68
2018-05-16T10:08:20.484Z,100484.50
2018-05-16T10:10:48.102Z,100478.94
2018-05-16T10:13:15.626Z,100480.52
2018-05-16T10:15:43.243Z,100478.89
2018-05-16T10:18:10.770Z,100488.36
2018-05-16T10:20:38.290Z,100491.13
2018-05-16T10:23:05.902Z,100480.61
2018-05-16T10:25:34.440Z,100478.26
2018-05-16T10:28:02.022Z,100481.24
2018-05-16T10:30:29.555Z,100482.22
2018-05-16T10:32:57.184Z,100481.22
2018-05-16T10:35:24.740Z,100485.72
2018-05-16T10:37:52.283Z,100483.45
2018-05-16T10:40:19.895Z,100486.58
2018-05-16T10:42:47.486Z,100489.35
2018-05-16T10:45:15.169Z,100488.48
2018-05-16T10:47:42.671Z,100494.14
2018-05-16T10:50:10.183Z,100490.49
2018-05-16T10:52:38.438Z,100490.00
2018-05-16T10:55:06.574Z,100490.70
2018-05-16T10:57:34.127Z,100490.95
2018-05-16T11:00:01.731Z,100488.88
2018-05-16T11:02:29.240Z,100483.55
2018-05-16T11:04:56.794Z,100480.27
2018-05-16T11:07:24.398Z,100484.59
2018-05-16T11:09:51.957Z,100482.71
2018-05-16T11:12:19.468Z,100487.55
2018-05-16T11:14:47.075Z,100480.95
2018-05-16T11:17:14.662Z,100476.23
2018-05-16T11:19:42.548Z,100478.13
2018-05-16T11:22:10.569Z,100473.90
2018-05-16T11:24:38.851Z,100477.81
2018-05-16T11:27:06.412Z,100469.19
2018-05-16T11:29:34.095Z,100464.34
2018-05-16T11:32:01.873Z,100469.09
2018-05-16T11:34:30.438Z,100466.59
2018-05-16T11:36:58.693Z,100456.64
2018-05-16T11:39:26.235Z,100460.05
2018-05-16T11:41:54.439Z,100459.07
2018-05-16T11:44:21.991Z,100461.77
2018-05-16T11:46:49.559Z,100473.51
2018-05-16T11:49:17.049Z,100468.53
2018-05-16T11:51:45.410Z,100474.54
2018-05-16T11:54:14.620Z,100472.31
2018-05-16T11:56:42.187Z,100477.73
2018-05-16T11:59:09.774Z,100470.95
2018-05-16T12:01:37.308Z,100470.30
2018-05-16T12:04:05.449Z,100467.69
2018-05-16T12:06:33.062Z,100460.64
2018-05-16T12:09:00.651Z,100461.52
2018-05-16T12:11:28.198Z,100459.38
2018-05-16T12:13:57.293Z,100450.95
2018-05-16T12:16:24.835Z,100450.47
2018-05-16T12:18:53.313Z,100448.39
2018-05-16T12:21:21.015Z,100451.65
2018-05-16T12:23:48.636Z,100448.08
2018-05-16T12:26:16.225Z,100451.37
2018-05-16T12:28:44.715Z,100457.16
2018-05-16T12:31:12.271Z,100455.03
2018-05-16T12:33:40.437Z,100460.44
2018-05-16T12:36:08.532Z,100460.25
2018-05-16T12:38:36.069Z,100458.73
2018-05-16T12:41:04.343Z,100454.46
2018-05-16T12:43:31.927Z,100459.57
2018-05-16T12:45:59.500Z,100455.57
2018-05-16T12:48:27.009Z,100449.53
2018-05-16T12:50:55.190Z,100452.29
2018-05-16T12:53:24.147Z,100453.95
2018-05-16T12:55:51.677Z,100471.33
2018-05-16T12:58:19.295Z,100466.34
2018-05-16T13:00:46.884Z,100464.86
2018-05-16T13:03:14.494Z,100459.34
2018-05-16T13:05:42.045Z,100457.72
2018-05-16T13:08:09.707Z,100464.75
2018-05-16T13:10:38.235Z,100459.58
2018-05-16T13:13:05.901Z,100458.41
2018-05-16T13:15:33.400Z,100457.75
2018-05-16T13:18:01.332Z,100464.27
2018-05-16T13:20:29.484Z,100463.50
2018-05-16T13:22:57.044Z,100464.88
2018-05-16T13:25:24.600Z,100473.74
2018-05-16T13:27:52.199Z,100464.14
2018-05-16T13:30:20.581Z,100462.61
2018-05-16T13:32:49.031Z,100464.59
2018-05-16T13:35:16.653Z,100452.33
2018-05-16T13:37:44.149Z,100457.69
2018-05-16T13:40:11.688Z,100449.53
2018-05-16T13:42:39.288Z,100454.94
2018-05-16T13:45:06.788Z,100455.13
2018-05-16T13:47:34.448Z,100447.98
2018-05-16T13:50:02.564Z,100440.28
2018-05-16T13:52:30.765Z,100436.63
2018-05-16T13:54:58.378Z,100430.77
2018-05-16T13:57:25.899Z,100437.70
2018-05-16T13:59:53.443Z,100436.27
2018-05-16T14:02:21.061Z,100435.93
2018-05-16T14:04:48.657Z,100438.13
2018-05-16T14:07:16.182Z,100439.75
2018-05-16T14:09:43.691Z,100444.61
2018-05-16T14:12:11.304Z,100443.22
2018-05-16T14:14:39.328Z,100431.14
2018-05-16T14:17:06.861Z,100437.42
2018-05-16T14:19:34.391Z,100449.23
2018-05-16T14:22:01.932Z,100441.20
2018-05-16T14:24:29.508Z,100447.78
2018-05-16T14:26:57.721Z,100438.80
2018-05-16T14:29:25.270Z,100436.31
2018-05-16T14:31:52.849Z,100438.59
2018-05-16T14:34:20.531Z,100430.16
2018-05-16T14:36:48.074Z,100425.20
2018-05-16T14:39:15.593Z,100426.77
2018-05-16T14:41:43.121Z,100425.67
2018-05-16T14:44:10.709Z,100421.02
2018-05-16T14:46:38.292Z,100408.91
2018-05-16T14:49:05.985Z,100413.61
2018-05-16T14:51:33.515Z,100409.56
2018-05-16T14:54:01.070Z,100403.20
2018-05-16T14:56:29.086Z,100400.39
2018-05-16T14:58:56.606Z,100401.64
2018-05-16T15:01:24.173Z,100405.71
2018-05-16T15:03:51.714Z,100400.53
2018-05-16T15:06:19.859Z,100400.45
2018-05-16T15:08:47.410Z,100385.92
2018-05-16T15:11:14.887Z,100382.45
2018-05-16T15:13:43.078Z,100390.68
2018-05-16T15:16:10.650Z,100380.44
2018-05-16T15:18:38.198Z,100381.52
2018-05-16T15:21:05.771Z,100398.69
2018-05-16T15:23:33.347Z,100394.87
2018-05-16T15:26:00.876Z,100396.06
2018-05-16T15:28:36.928Z,100403.45
2018-05-16T15:31:04.484Z,100402.35
2018-05-16T15:33:31.994Z,100398.03
2018-05-16T15:36:00.624Z,100392.77
2018-05-16T15:38:28.507Z,100385.78
2018-05-16T15:40:56.604Z,100372.92
2018-05-16T15:43:24.110Z,100366.55
2018-05-16T15:45:55.121Z,100358.62
2018-05-16T15:48:26.490Z,100338.75
2018-05-16T15:50:54.693Z,100331.72
2018-05-16T15:53:22.258Z,100320.81
2018-05-16T15:55:49.792Z,100330.93
2018-05-16T15:58:17.911Z,100324.77
2018-05-16T16:00:45.921Z,100324.55
2018-05-16T16:03:13.503Z,100334.30
2018-05-16T16:05:41.777Z,100342.61
2018-05-16T16:08:09.422Z,100340.73
2018-05-16T16:10:37.183Z,100330.38
2018-05-16T16:13:04.737Z,100305.47
2018-05-16T16:15:32.323Z,100295.20
2018-05-16T16:18:00.074Z,100301.13
2018-05-16T16:20:27.680Z,100296.41
2018-05-16T16:22:55.320Z,100296.59
2018-05-16T16:25:23.052Z,100287.95
2018-05-16T16:27:50.602Z,100291.53
2018-05-16T16:30:18.906Z,100295.20
2018-05-16T16:32:46.458Z,100300.67
2018-05-16T16:35:14.021Z,100303.55
2018-05-16T16:37:41.782Z,100312.67
2018-05-16T16:40:09.537Z,100313.28
2018-05-16T16:42:38.239Z,100317.81
2018-05-16T16:45:05.786Z,100324.94
2018-05-16T16:47:33.353Z,100330.11
2018-05-16T16:50:00.932Z,100327.70
2018-05-16T16:52:28.526Z,100329.87
2018-05-16T16:54:56.091Z,100331.36
2018-05-16T16:57:23.829Z,100334.48
2018-05-16T16:59:51.414Z,100335.63
2018-05-16T17:02:18.999Z,100336.80
2018-05-16T17:04:46.526Z,100341.56
2018-05-16T17:07:14.327Z,100346.86
2018-05-16T17:09:42.363Z,100341.27
2018-05-16T17:12:10.878Z,100343.09
2018-05-16T17:14:38.540Z,100343.98
2018-05-16T17:17:06.103Z,100338.16
2018-05-16T17:19:33.684Z,100344.15
2018-05-16T17:22:01.281Z,100343.34
2018-05-16T17:24:28.790Z,100347.44
2018-05-16T17:26:56.445Z,100343.39
2018-05-16T17:29:24.010Z,100343.20
2018-05-16T17:31:52.507Z,100342.86
2018-05-16T17:34:20.315Z,100343.27
2018-05-16T17:36:48.332Z,100343.45
2018-05-16T17:39:15.913Z,100345.92
2018-05-16T17:41:43.525Z,100344.38
2018-05-16T17:44:11.535Z,100343.88
2018-05-16T17:46:40.253Z,100339.65
2018-05-16T17:49:11.608Z,100341.82
2018-05-16T17:51:39.268Z,100338.87
2018-05-16T17:54:09.649Z,100336.98
2018-05-16T17:56:37.293Z,100338.41
2018-05-16T17:59:04.852Z,100342.16
2018-05-16T18:01:32.480Z,100341.61
2018-05-16T18:04:00.242Z,100341.94
2018-05-16T18:06:27.834Z,100344.16
2018-05-16T18:08:55.459Z,100341.83
2018-05-16T18:11:24.909Z,100348.73
2018-05-16T18:14:05.191Z,100347.24
2018-05-16T18:19:37.128Z,100345.31
2018-05-16T18:22:04.997Z,100344.06
2018-05-16T18:24:32.916Z,100344.66
2018-05-16T18:27:01.717Z,100343.31
2018-05-16T18:29:29.317Z,100350.25
2018-05-16T18:31:56.912Z,100349.48
2018-05-16T18:34:24.494Z,100352.30
2018-05-16T18:36:52.155Z,100345.94
2018-05-16T18:39:19.811Z,100349.45
2018-05-16T18:41:47.310Z,100356.76
2018-05-16T18:44:15.630Z,100356.85
2018-05-16T18:46:43.823Z,100357.69
2018-05-16T18:49:11.398Z,100360.95
2018-05-16T18:51:40.059Z,100367.42
2018-05-16T18:54:07.888Z,100367.36
2018-05-16T18:56:35.537Z,100364.05
2018-05-16T18:59:03.230Z,100367.07
2018-05-16T19:01:30.822Z,100366.34
2018-05-16T19:03:58.388Z,100372.03
2018-05-16T19:06:26.004Z,100367.28
2018-05-16T19:08:53.598Z,100373.39
2018-05-16T19:11:21.077Z,100373.06
2018-05-16T19:13:48.682Z,100371.38
2018-05-16T19:16:16.315Z,100371.12
2018-05-16T19:18:43.855Z,100359.73
2018-05-16T19:21:11.579Z,100363.84
2018-05-16T19:23:39.259Z,100360.36
2018-05-16T19:26:06.846Z,100364.77
2018-05-16T19:28:34.569Z,100373.81
2018-05-16T19:31:02.107Z,100372.87
2018-05-16T19:33:29.727Z,100369.83
2018-05-16T19:35:57.391Z,100371.18
2018-05-16T19:38:25.026Z,100371.05
2018-05-16T19:40:52.832Z,100362.75
2018-05-16T19:43:20.316Z,100372.22
2018-05-16T19:45:47.821Z,100368.04
2018-05-16T19:48:15.376Z,100368.56
2018-05-16T19:50:43.152Z,100373.74
2018-05-16T19:53:10.691Z,100376.07
2018-05-16T19:55:38.216Z,100378.08
2018-05-16T19:58:05.774Z,100375.97
2018-05-16T20:00:33.381Z,100373.06
2018-05-16T20:03:00.946Z,100377.27
2018-05-16T20:05:28.813Z,100377.77
2018-05-16T20:07:56.541Z,100374.52
2018-05-16T20:10:24.111Z,100379.73
2018-05-16T20:12:51.659Z,100371.20
2018-05-16T20:15:19.640Z,100376.02
2018-05-16T20:17:47.804Z,100368.83
2018-05-16T20:20:15.398Z,100376.44
2018-05-16T20:22:43.057Z,100373.73
2018-05-16T20:25:11.007Z,100370.63
2018-05-16T20:27:38.529Z,100367.63
2018-05-16T20:30:06.329Z,100367.91
2018-05-16T20:32:33.980Z,100366.87
2018-05-16T20:35:01.520Z,100370.28
2018-05-16T20:37:29.090Z,100372.03
2018-05-16T20:39:56.664Z,100371.63
2018-05-16T20:42:24.108Z,100373.31
2018-05-16T20:44:51.628Z,100376.64
2018-05-16T20:47:19.162Z,100378.27
2018-05-16T20:49:46.732Z,100377.44
2018-05-16T20:52:14.260Z,100381.73
2018-05-16T20:54:41.815Z,100385.61
2018-05-16T20:57:09.324Z,100381.80
2018-05-16T20:59:36.852Z,100378.68
2018-05-16T21:02:04.593Z,100381.27
2018-05-16T21:04:32.169Z,100386.02
2018-05-16T21:06:59.701Z,100385.63
2018-05-16T21:09:27.327Z,100390.67
2018-05-16T21:11:54.924Z,100393.20
2018-05-16T21:14:23.872Z,100393.92
2018-05-16T21:16:51.468Z,100391.09
2018-05-16T21:19:19.001Z,100396.66
2018-05-16T21:21:46.599Z,100395.89
2018-05-16T21:24:14.184Z,100394.09
2018-05-16T21:26:41.738Z,100399.36
2018-05-16T21:29:09.260Z,100400.23
2018-05-16T21:31:36.775Z,100401.01
2018-05-16T21:34:04.759Z,100402.94
2018-05-16T21:36:32.388Z,100401.76
2018-05-16T21:39:00.046Z,100407.43
2018-05-16T21:41:27.632Z,100405.63
2018-05-16T21:43:55.279Z,100416.12
2018-05-16T21:46:22.816Z,100415.25
2018-05-16T21:48:50.368Z,100413.22
2018-05-16T21:51:17.899Z,100420.67
2018-05-16T21:53:45.471Z,100428.48
2018-05-16T21:56:12.968Z,100428.42
2018-05-16T21:58:40.469Z,100429.59
2018-05-16T22:01:07.984Z,100434.04
2018-05-16T22:03:35.633Z,100435.59
2018-05-16T22:06:03.307Z,100440.82
2018-05-16T22:08:30.825Z,100449.73
2018-05-16T22:10:58.339Z,100442.77
2018-05-16T22:13:25.899Z,100438.73
2018-05-16T22:15:53.745Z,100441.66
2018-05-16T22:18:21.292Z,100440.22
2018-05-16T22:20:48.884Z,100443.41
2018-05-16T22:23:16.385Z,100447.11
2018-05-16T22:25:43.980Z,100445.98
2018-05-16T22:28:11.559Z,100451.61
2018-05-16T22:30:44.640Z,100454.11
2018-05-16T22:33:17.806Z,100455.18
2018-05-16T22:35:50.953Z,100456.93
2018-05-16T22:38:24.038Z,100461.69
2018-05-16T22:40:56.999Z,100457.81
2018-05-16T22:43:24.549Z,100456.38
2018-05-16T22:45:54.844Z,100464.91
2018-05-16T22:48:22.365Z,100460.16
2018-05-16T22:50:49.909Z,100459.84
2018-05-16T22:53:17.459Z,100464.02
2018-05-16T22:55:44.999Z,100462.45
2018-05-16T22:58:12.495Z,100461.35
2018-05-16T23:00:39.997Z,100466.00
2018-05-16T23:03:07.528Z,100462.79
2018-05-16T23:05:35.033Z,100467.11
2018-05-16T23:08:02.555Z,100468.98
2018-05-16T23:10:30.065Z,100464.29
2018-05-16T23:12:57.624Z,100465.91
2018-05-16T23:15:25.164Z,100471.36
2018-05-16T23:17:52.725Z,100467.22
2018-05-16T23:20:20.214Z,100460.52
2018-05-16T23:22:47.738Z,100469.26
2018-05-16T23:25:15.267Z,100466.47
2018-05-16T23:27:42.798Z,100471.37
2018-05-16T23:30:10.373Z,100468.38
2018-05-16T23:32:37.865Z,100469.91
2018-05-16T23:35:05.348Z,100478.80
2018-05-16T23:37:32.887Z,100485.00
2018-05-16T23:40:00.376Z,100477.58
2018-05-16T23:42:27.957Z,100482.00
2018-05-16T23:47:48.478Z,100485.94
2018-05-16T23:50:15.970Z,100489.06
2018-05-16T23:52:43.483Z,100490.48
2018-05-16T23:55:10.986Z,100488.52
2018-05-16T23:57:38.547Z,100492.95
